Impacts TAF Board
For situational awareness. Not to be used for flight planning purposes.
IDs:

KTEB - Teterboro Arpt, NJ, US

Issued at 0525 UTC 03 Aug 2021
Updated at 0633 UTC 03 Aug 2021
Potential Impact None Slight Moderate High
Time0551Z 03/07Z 03/08Z 03/09Z 03/10Z 03/11Z 03/12Z 03/13Z 03/14Z 03/15Z 03/16Z 03/17Z 03/18Z 03/19Z>>
Type OBS PRVL PRVL PRVL PRVL PRVL PRVL PRVL PRVL PRVL PRVL PRVL PRVL PRVL
VIS 10 >6 >6 >6 >6 >6 >6 >6 >6 >6 >6 >6 >6 >6
CIG -- -- -- -- -- -- -- -- -- -- -- -- -- --
Cover CLR SCT SCT SCT SCT SCT SCT SCT FEW FEW FEW FEW FEW FEW
FltCat VFR VFR VFR VFR VFR VFR VFR VFR VFR VFR VFR VFR VFR VFR
WX -- -- -- -- -- -- -- -- -- -- -- -- -- --
WDir VRB 320 320 320 320 320 320 320 20 20 20 20 200 200
WSpd 0 5 5 5 5 5 5 5 4 4 4 4 6 6
WGst -- -- -- -- -- -- -- -- -- -- -- -- -- --
Raw TAF
KTEB 030525Z 0306/0412 32005KT P6SM SCT060
  FM031400 02004KT P6SM FEW250
  FM031800 20006KT P6SM FEW250
  FM032100 17005KT P6SM FEW050 SCT250
  FM040100 VRB03KT P6SM BKN050


Raw METAR
KTEB 030551Z 00000KT 10SM CLR 19/11 A3009 RMK AO2 SLP189 T01890106 10244 20183 50010
KTEB 030451Z 36003KT 10SM CLR 19/11 A3010 RMK AO2 SLP191 T01940106 402670156
KTEB 030351Z 01004KT 10SM CLR 20/11 A3007 RMK AO2 SLP183 T02000106

METAR Board
Radar Display
Forecast Discussion
For situational awareness. Not to be used for flight planning purposes.